Airfield :
LOGIN :

Register | Disclaimer

   EN    FR    IT 

 










Legend :    VFR   Marginal VFR   IFR   Intensive IFR   Very Intensive IFR
Visi :
Ceiling :
>= 8 km
>= 3000ft
5 to 8 km
1000 to 3000 ft
1500m to 5 km
500 to 1000 ft
800 to 1500m
200 to 500 ft
< 800m
< 200 ft
Symbols :   Thunderstorms  Fog  Heavy snow  Heavy precipitations  Wind > 20 kt
SIGMETs :     Misc.  Thunderstorms  Icing  Turbulence  Mountain Waves  Volcanic Ashes






- Airport Elevation : 1966 ft
- IATA code : SGE


EDGS - Siegerland

CURRENT METAR :
  • 231350Z 34005KT 280V020 CAVOK 06/M07 Q1015

EXPIRED METARs :
  • 231320Z 33006KT 270V070 CAVOK 06/M06 Q1016
  • 231250Z 32004KT 240V010 CAVOK 06/M06 Q1016
  • 231220Z 35004KT 240V040 CAVOK 05/M07 Q1016
  • 231150Z 36006KT 310V060 9999 BKN045 05/M06 Q1016
  • 231120Z VRB03KT 9999 SCT049 05/M08 Q1017
  • 231050Z 04004KT 360V070 9999 BKN045 04/M06 Q1017
  • 231020Z 02007KT 330V080 9999 BKN043 04/M06 Q1017
  • 230920Z 05006KT 350V100 CAVOK 04/M06 Q1018

TAF TAF EDGS
Valid from the 23 at 12:00 until the 23 at 21:00 UTC


231100Z 2312/2321 04006KT CAVOK
BECMG 2312/2315 31005KT



MET'MAP, your aeronautical weather chart ! - Copyright ORBIFLY December 2007 - Disclaimer

ORBIFLY MET'MAP TEAM :

Programming & Development : Alexandra Zaïnal
Original concept : Baudouin d'Aumeries
Technical & hardware support : Manuel Goepfert
Assistance : Marc-Olivier Méhu




SOURCES & CREDITS :

   NOAA